Time;durP1;ratioP1;P1;durP2;ratioP2;P2;SDS_P1;SDS_P2;PMS_P1;PMS_P2;Temp;Humidity;BMP_temperature;BMP_pressure;BME280_temperature;BME280_humidity;BME280_pressure;Samples;Min_cycle;Max_cycle;Signal;HPM_P1;HPM_P2
2021/06/15 00:01:17;;;;;;;6.07;5.47;;;;;;;;;;5036014;28;20300;-63
2021/06/15 00:03:42;;;;;;;6.43;5.70;;;;;;;;;;5036523;28;20214;-63
2021/06/15 00:06:07;;;;;;;8.73;5.03;;;;;;;;;;5035252;28;20300;-63
2021/06/15 00:08:33;;;;;;;7.40;6.00;;;;;;;;;;5035957;28;20228;-63
2021/06/15 00:10:58;;;;;;;6.70;5.30;;;;;;;;;;5035173;28;20222;-63
2021/06/15 00:13:23;;;;;;;5.53;4.60;;;;;;;;;;5035522;28;20247;-63
2021/06/15 00:15:50;;;;;;;5.43;4.93;;;;;;;;;;5034897;28;20228;-63
2021/06/15 00:18:16;;;;;;;6.83;5.33;;;;;;;;;;5034607;28;20267;-62
2021/06/15 00:20:43;;;;;;;7.50;5.30;;;;;;;;;;5034726;28;20946;-63
2021/06/15 00:23:08;;;;;;;5.80;5.20;;;;;;;;;;5036141;28;20460;-63
2021/06/15 00:25:34;;;;;;;6.50;5.20;;;;;;;;;;5034808;28;20469;-63
2021/06/15 00:27:59;;;;;;;7.60;5.20;;;;;;;;;;5035893;28;20247;-63
2021/06/15 00:30:24;;;;;;;5.20;4.70;;;;;;;;;;5035394;28;20244;-64
2021/06/15 00:32:51;;;;;;;5.30;4.80;;;;;;;;;;5035823;28;20229;-63
2021/06/15 00:35:17;;;;;;;7.50;4.83;;;;;;;;;;5033642;28;20319;-62
2021/06/15 00:37:42;;;;;;;5.70;4.93;;;;;;;;;;5041695;28;20465;-62
2021/06/15 00:40:08;;;;;;;7.37;6.57;;;;;;;;;;5065996;28;20827;-63
2021/06/15 00:42:34;;;;;;;5.77;4.60;;;;;;;;;;5057503;28;20229;-63
2021/06/15 00:44:59;;;;;;;5.10;4.60;;;;;;;;;;5064885;28;20248;-62
2021/06/15 00:47:24;;;;;;;6.60;5.27;;;;;;;;;;5061519;28;20241;-63
2021/06/15 00:49:52;;;;;;;4.13;3.83;;;;;;;;;;5066085;28;20641;-62
2021/06/15 00:52:17;;;;;;;5.63;4.83;;;;;;;;;;5059693;28;20311;-63
2021/06/15 00:54:43;;;;;;;7.03;5.17;;;;;;;;;;5066063;28;20539;-62
2021/06/15 00:57:15;;;;;;;7.57;4.90;;;;;;;;;;5068601;28;20220;-63
2021/06/15 00:59:40;;;;;;;5.47;5.00;;;;;;;;;;5064067;28;20455;-62
2021/06/15 01:02:05;;;;;;;7.17;5.20;;;;;;;;;;5061715;28;20522;-63
2021/06/15 01:04:30;;;;;;;7.13;5.00;;;;;;;;;;5064907;28;20271;-62
2021/06/15 01:06:56;;;;;;;6.43;5.73;;;;;;;;;;5068248;28;20661;-62
2021/06/15 01:09:28;;;;;;;4.95;4.38;;;;;;;;;;5050417;28;20232;-63
2021/06/15 01:12:06;;;;;;;8.97;5.73;;;;;;;;;;5067451;28;20227;-63
2021/06/15 01:15:02;;;;;;;7.80;5.20;;;;;;;;;;5065814;28;20459;-63
2021/06/15 01:17:35;;;;;;;5.23;4.57;;;;;;;;;;5053624;28;20462;-62
2021/06/15 01:20:09;;;;;;;7.97;5.30;;;;;;;;;;5060311;28;20463;-63
2021/06/15 01:22:44;;;;;;;13.77;12.40;;;;;;;;;;5062492;28;20604;-62
2021/06/15 01:25:12;;;;;;;7.13;6.43;;;;;;;;;;5068098;28;20455;-63
2021/06/15 01:27:37;;;;;;;5.13;4.40;;;;;;;;;;5067179;28;20584;-63
2021/06/15 01:30:07;;;;;;;6.07;5.20;;;;;;;;;;5060837;28;20550;-63
2021/06/15 01:32:33;;;;;;;7.50;6.73;;;;;;;;;;5060622;28;20217;-63
2021/06/15 01:34:59;;;;;;;7.77;6.50;;;;;;;;;;5067311;28;20459;-63
2021/06/15 01:37:32;;;;;;;9.80;8.80;;;;;;;;;;5062474;28;20358;-63
2021/06/15 01:40:14;;;;;;;9.30;5.90;;;;;;;;;;5059822;28;20953;-64
2021/06/15 01:42:47;;;;;;;7.70;6.90;;;;;;;;;;5053348;28;20927;-64
2021/06/15 01:45:24;;;;;;;9.67;8.10;;;;;;;;;;5047011;28;20459;-63
2021/06/15 01:48:06;;;;;;;7.70;5.87;;;;;;;;;;5059448;28;20942;-64
2021/06/15 01:50:36;;;;;;;10.53;7.83;;;;;;;;;;5062019;28;20528;-64
2021/06/15 01:53:05;;;;;;;8.00;6.07;;;;;;;;;;5066577;28;20459;-63
2021/06/15 01:55:31;;;;;;;15.17;13.57;;;;;;;;;;5065012;28;20470;-63
2021/06/15 01:57:57;;;;;;;14.60;12.17;;;;;;;;;;5060447;28;20463;-63
2021/06/15 02:00:22;;;;;;;7.10;5.53;;;;;;;;;;5061641;28;20475;-62
2021/06/15 02:02:49;;;;;;;7.47;5.57;;;;;;;;;;5066947;28;20224;-63
2021/06/15 02:05:16;;;;;;;6.93;6.03;;;;;;;;;;5065401;28;20228;-64
2021/06/15 02:07:43;;;;;;;5.30;4.80;;;;;;;;;;5058866;28;20489;-63
2021/06/15 02:10:12;;;;;;;7.10;6.40;;;;;;;;;;5052186;28;20541;-63
2021/06/15 02:12:41;;;;;;;5.50;5.00;;;;;;;;;;5065557;28;20521;-63
2021/06/15 02:15:10;;;;;;;5.63;4.93;;;;;;;;;;5066382;28;20455;-62
2021/06/15 02:17:47;;;;;;;12.30;10.30;;;;;;;;;;5059915;28;20934;-63
2021/06/15 02:20:16;;;;;;;14.77;13.33;;;;;;;;;;5059196;28;20472;-62
2021/06/15 02:22:47;;;;;;;7.00;5.60;;;;;;;;;;5064531;28;20464;-63
2021/06/15 02:25:13;;;;;;;6.30;5.70;;;;;;;;;;5066910;28;20454;-63
2021/06/15 02:27:39;;;;;;;9.20;8.23;;;;;;;;;;5060749;28;20459;-62
2021/06/15 02:30:05;;;;;;;11.30;10.30;;;;;;;;;;5059047;28;20463;-63
2021/06/15 02:32:33;;;;;;;17.63;15.97;;;;;;;;;;5064761;28;20464;-63
2021/06/15 02:35:02;;;;;;;8.63;7.17;;;;;;;;;;5066756;28;20455;-62
2021/06/15 02:37:31;;;;;;;17.27;15.47;;;;;;;;;;5055372;28;20474;-63
2021/06/15 02:39:57;;;;;;;12.87;11.20;;;;;;;;;;5062777;28;20455;-62
2021/06/15 02:42:23;;;;;;;10.73;7.77;;;;;;;;;;5049108;28;20463;-63
2021/06/15 02:44:51;;;;;;;6.63;6.00;;;;;;;;;;5062953;28;20470;-64
2021/06/15 02:47:17;;;;;;;5.90;5.23;;;;;;;;;;5065985;28;20478;-63
2021/06/15 02:49:55;;;;;;;10.70;9.13;;;;;;;;;;5061808;28;20501;-62
2021/06/15 02:52:36;;;;;;;10.03;9.03;;;;;;;;;;5058879;28;20293;-63
2021/06/15 02:55:05;;;;;;;6.60;5.53;;;;;;;;;;5059650;28;20530;-64
2021/06/15 02:57:31;;;;;;;6.77;6.00;;;;;;;;;;5065643;28;20460;-63
2021/06/15 02:59:58;;;;;;;11.77;8.80;;;;;;;;;;5065764;28;20462;-63
2021/06/15 03:02:24;;;;;;;9.43;8.43;;;;;;;;;;5058514;28;20457;-63
2021/06/15 03:04:50;;;;;;;6.57;5.87;;;;;;;;;;5060139;28;20496;-62
2021/06/15 03:07:15;;;;;;;16.63;13.50;;;;;;;;;;5066646;28;20459;-62
2021/06/15 03:09:41;;;;;;;11.30;10.20;;;;;;;;;;5065463;28;20675;-63
2021/06/15 03:12:16;;;;;;;8.67;6.53;;;;;;;;;;5059575;28;20241;-63
2021/06/15 03:14:45;;;;;;;11.60;9.10;;;;;;;;;;5058580;28;20615;-64
2021/06/15 03:17:11;;;;;;;18.50;15.73;;;;;;;;;;5064585;28;20862;-63
2021/06/15 03:19:43;;;;;;;8.30;7.33;;;;;;;;;;5065417;28;20463;-62
2021/06/15 03:22:20;;;;;;;9.30;8.27;;;;;;;;;;5062460;28;20483;-62
2021/06/15 03:24:54;;;;;;;8.40;7.57;;;;;;;;;;5062002;28;20492;-63
2021/06/15 03:27:30;;;;;;;11.30;10.30;;;;;;;;;;5064889;28;20460;-64
2021/06/15 03:29:55;;;;;;;12.30;9.90;;;;;;;;;;5069825;28;20459;-64
2021/06/15 03:32:21;;;;;;;10.77;8.30;;;;;;;;;;5067797;28;20832;-63
2021/06/15 03:34:50;;;;;;;7.80;7.10;;;;;;;;;;5061678;28;20213;-63
2021/06/15 03:37:19;;;;;;;7.63;6.30;;;;;;;;;;5061465;28;20587;-62
2021/06/15 03:39:45;;;;;;;6.70;6.10;;;;;;;;;;5049416;28;20481;-64
2021/06/15 03:42:15;;;;;;;10.83;6.50;;;;;;;;;;5059795;28;20460;-63
2021/06/15 03:44:41;;;;;;;6.70;5.37;;;;;;;;;;5064185;28;20366;-62
2021/06/15 03:47:07;;;;;;;11.70;10.53;;;;;;;;;;5062651;28;20909;-62
2021/06/15 03:49:33;;;;;;;12.40;9.40;;;;;;;;;;5067874;28;20680;-63
2021/06/15 03:52:01;;;;;;;29.90;26.57;;;;;;;;;;5068356;28;20466;-63
2021/06/15 03:54:27;;;;;;;35.67;31.93;;;;;;;;;;5064263;28;20212;-62
2021/06/15 03:56:55;;;;;;;18.60;16.70;;;;;;;;;;5061442;28;20470;-63
2021/06/15 03:59:26;;;;;;;28.83;23.23;;;;;;;;;;5066883;28;20463;-63
2021/06/15 04:01:54;;;;;;;17.00;15.27;;;;;;;;;;5069143;28;20469;-64
2021/06/15 04:04:20;;;;;;;18.63;15.70;;;;;;;;;;5065691;28;20462;-63
2021/06/15 04:06:52;;;;;;;20.20;17.50;;;;;;;;;;5061498;28;21057;-63
2021/06/15 04:09:22;;;;;;;10.57;9.57;;;;;;;;;;5064785;28;21371;-63
2021/06/15 04:11:48;;;;;;;22.90;18.83;;;;;;;;;;5068536;28;20908;-63
2021/06/15 04:14:15;;;;;;;15.17;12.93;;;;;;;;;;5066574;28;20486;-63
2021/06/15 04:16:42;;;;;;;11.80;10.13;;;;;;;;;;5061573;28;20455;-63
2021/06/15 04:19:12;;;;;;;11.37;8.60;;;;;;;;;;5063343;28;20791;-63
2021/06/15 04:21:39;;;;;;;13.70;12.00;;;;;;;;;;5069064;28;20467;-63
2021/06/15 04:24:07;;;;;;;7.37;6.27;;;;;;;;;;5066097;28;20463;-63
2021/06/15 04:26:36;;;;;;;20.47;17.50;;;;;;;;;;5062234;28;20467;-63
2021/06/15 04:29:05;;;;;;;20.30;17.00;;;;;;;;;;5062857;28;20459;-63
2021/06/15 04:31:30;;;;;;;9.40;8.20;;;;;;;;;;5068322;28;20479;-63
2021/06/15 04:33:58;;;;;;;10.27;9.17;;;;;;;;;;5066681;28;20941;-63
2021/06/15 04:36:23;;;;;;;9.77;8.77;;;;;;;;;;5054315;28;20278;-63
2021/06/15 04:38:58;;;;;;;9.23;8.30;;;;;;;;;;5068738;28;20463;-62
2021/06/15 04:41:35;;;;;;;8.90;7.47;;;;;;;;;;5061119;28;20224;-62
2021/06/15 04:44:03;;;;;;;9.20;7.03;;;;;;;;;;5070361;28;20595;-62
2021/06/15 04:46:39;;;;;;;10.83;9.83;;;;;;;;;;5064949;28;20817;-63
2021/06/15 04:49:30;;;;;;;12.33;11.10;;;;;;;;;;5061270;28;20981;-62
2021/06/15 04:51:58;;;;;;;11.97;10.77;;;;;;;;;;5061572;28;20447;-62
2021/06/15 04:54:29;;;;;;;6.93;5.90;;;;;;;;;;5066331;28;20818;-63
2021/06/15 04:56:55;;;;;;;11.97;8.60;;;;;;;;;;5068575;28;20544;-63
2021/06/15 04:59:21;;;;;;;11.43;9.90;;;;;;;;;;5061931;28;20466;-62
2021/06/15 05:01:48;;;;;;;11.37;9.60;;;;;;;;;;5061683;28;20480;-63
2021/06/15 05:04:13;;;;;;;11.30;9.33;;;;;;;;;;5065475;28;20802;-63
2021/06/15 05:06:42;;;;;;;12.30;11.03;;;;;;;;;;5067795;28;20465;-63
2021/06/15 05:09:09;;;;;;;18.60;16.00;;;;;;;;;;5062462;28;20212;-62
2021/06/15 05:11:37;;;;;;;15.40;12.40;;;;;;;;;;5061138;28;20463;-63
2021/06/15 05:14:05;;;;;;;16.73;14.93;;;;;;;;;;5065146;28;20478;-62
2021/06/15 05:16:33;;;;;;;8.73;7.83;;;;;;;;;;5067227;28;20475;-63
2021/06/15 05:18:58;;;;;;;7.23;5.67;;;;;;;;;;5063376;28;20465;-63
2021/06/15 05:21:28;;;;;;;11.00;9.97;;;;;;;;;;5059638;28;20768;-63
2021/06/15 05:24:05;;;;;;;11.57;8.10;;;;;;;;;;5064713;28;20304;-62
2021/06/15 05:26:31;;;;;;;24.37;21.93;;;;;;;;;;5066729;28;20478;-63
2021/06/15 05:28:57;;;;;;;9.57;8.67;;;;;;;;;;5065703;28;20478;-63
2021/06/15 05:31:22;;;;;;;7.07;6.47;;;;;;;;;;5060739;28;20467;-62
2021/06/15 05:33:48;;;;;;;11.50;10.30;;;;;;;;;;5063433;28;20575;-63
2021/06/15 05:36:13;;;;;;;8.73;5.60;;;;;;;;;;5066549;28;20205;-63
2021/06/15 05:38:39;;;;;;;8.53;7.63;;;;;;;;;;5065077;28;20208;-63
2021/06/15 05:41:04;;;;;;;14.00;10.13;;;;;;;;;;5060390;28;20235;-63
2021/06/15 05:43:30;;;;;;;12.17;10.77;;;;;;;;;;5071647;28;20217;-63
2021/06/15 05:45:55;;;;;;;9.87;8.97;;;;;;;;;;5055844;28;20221;-63
2021/06/15 05:48:20;;;;;;;8.83;7.87;;;;;;;;;;5064488;28;20246;-63
2021/06/15 05:50:48;;;;;;;13.80;12.60;;;;;;;;;;5060592;28;20228;-62
2021/06/15 05:53:14;;;;;;;11.97;10.00;;;;;;;;;;5063121;28;20217;-63
2021/06/15 05:55:39;;;;;;;12.10;10.80;;;;;;;;;;5049682;28;20521;-63
2021/06/15 05:58:05;;;;;;;8.10;7.10;;;;;;;;;;5064557;28;20683;-62
2021/06/15 06:00:30;;;;;;;7.17;6.50;;;;;;;;;;5058991;28;20228;-63
2021/06/15 06:02:56;;;;;;;7.03;6.43;;;;;;;;;;5063480;28;20221;-63
2021/06/15 06:08:08;;;;;;;8.20;6.13;;;;;;;;;;5063942;28;20670;-63
2021/06/15 06:10:34;;;;;;;10.33;9.10;;;;;;;;;;5060193;28;20510;-63
2021/06/15 06:13:00;;;;;;;9.60;8.70;;;;;;;;;;5059821;28;20466;-62
2021/06/15 06:15:25;;;;;;;9.87;8.30;;;;;;;;;;5066734;28;20456;-62
2021/06/15 06:17:50;;;;;;;10.93;9.93;;;;;;;;;;5066281;28;20228;-64
2021/06/15 06:20:18;;;;;;;9.60;7.30;;;;;;;;;;5059706;28;20231;-62
2021/06/15 06:22:44;;;;;;;9.40;8.50;;;;;;;;;;5061028;28;20217;-62
2021/06/15 06:25:13;;;;;;;8.47;7.53;;;;;;;;;;5066832;28;20482;-63
2021/06/15 06:27:39;;;;;;;8.17;7.37;;;;;;;;;;5066530;28;20455;-63
2021/06/15 06:30:06;;;;;;;11.07;9.00;;;;;;;;;;5059648;28;20462;-62
2021/06/15 06:32:32;;;;;;;10.47;9.30;;;;;;;;;;5060094;28;20523;-62
2021/06/15 06:34:57;;;;;;;7.90;7.10;;;;;;;;;;5066990;28;20470;-63
2021/06/15 06:37:22;;;;;;;8.20;7.30;;;;;;;;;;5054302;28;20232;-63
2021/06/15 06:39:48;;;;;;;10.93;6.80;;;;;;;;;;5065320;28;20223;-62
2021/06/15 06:42:13;;;;;;;9.10;7.90;;;;;;;;;;5066150;28;20244;-63
2021/06/15 06:44:39;;;;;;;8.93;8.00;;;;;;;;;;5065102;28;20231;-62
2021/06/15 06:47:04;;;;;;;8.57;7.60;;;;;;;;;;5066880;28;20205;-62
2021/06/15 06:49:29;;;;;;;10.87;9.80;;;;;;;;;;5060505;28;20303;-63
2021/06/15 06:51:55;;;;;;;10.90;7.27;;;;;;;;;;5059864;28;20212;-62
2021/06/15 06:54:20;;;;;;;6.10;5.47;;;;;;;;;;5065607;28;20293;-62
2021/06/15 06:56:45;;;;;;;12.00;7.07;;;;;;;;;;5067847;28;20675;-63
2021/06/15 06:59:11;;;;;;;6.57;5.50;;;;;;;;;;5064435;28;20227;-63
2021/06/15 07:01:36;;;;;;;8.07;6.13;;;;;;;;;;5062120;28;20229;-63
2021/06/15 07:04:01;;;;;;;9.30;7.40;;;;;;;;;;5070187;28;20250;-63
2021/06/15 07:06:27;;;;;;;10.80;9.07;;;;;;;;;;5068952;28;20281;-63
2021/06/15 07:08:53;;;;;;;11.20;10.10;;;;;;;;;;5064178;28;20223;-62
2021/06/15 07:11:19;;;;;;;11.70;8.60;;;;;;;;;;5063110;28;20267;-63
2021/06/15 07:13:45;;;;;;;9.70;8.77;;;;;;;;;;5069946;28;20228;-63
2021/06/15 07:16:10;;;;;;;8.90;7.60;;;;;;;;;;5070362;28;20451;-64
2021/06/15 07:18:37;;;;;;;8.13;7.33;;;;;;;;;;5063558;28;23204;-63
2021/06/15 07:21:06;;;;;;;9.27;8.20;;;;;;;;;;5063037;28;20374;-63
2021/06/15 07:23:32;;;;;;;6.90;6.30;;;;;;;;;;5068349;28;20471;-62
2021/06/15 07:25:58;;;;;;;6.50;5.90;;;;;;;;;;5070311;28;20455;-63
2021/06/15 07:28:23;;;;;;;9.00;7.80;;;;;;;;;;5063640;28;20801;-63
2021/06/15 07:30:49;;;;;;;13.50;11.20;;;;;;;;;;5063226;28;20687;-63
2021/06/15 07:33:14;;;;;;;10.63;6.90;;;;;;;;;;5069635;28;20270;-63
2021/06/15 07:35:40;;;;;;;8.30;7.50;;;;;;;;;;5069318;28;20221;-63
2021/06/15 07:38:05;;;;;;;13.97;12.60;;;;;;;;;;5063684;28;20540;-63
2021/06/15 07:40:30;;;;;;;11.50;9.77;;;;;;;;;;5062606;28;20232;-64
2021/06/15 07:42:58;;;;;;;8.10;7.30;;;;;;;;;;5074304;28;20285;-62
2021/06/15 07:45:25;;;;;;;12.20;10.30;;;;;;;;;;5062830;28;20217;-62
2021/06/15 07:47:50;;;;;;;13.67;12.33;;;;;;;;;;5068819;28;20455;-63
2021/06/15 07:50:17;;;;;;;12.80;11.33;;;;;;;;;;5068530;28;20470;-63
2021/06/15 07:52:43;;;;;;;7.97;7.17;;;;;;;;;;5063478;28;20233;-64
2021/06/15 07:55:09;;;;;;;10.33;9.33;;;;;;;;;;5062778;28;20517;-63
2021/06/15 07:57:35;;;;;;;8.00;7.30;;;;;;;;;;5068062;28;20524;-63
2021/06/15 08:00:03;;;;;;;15.33;11.63;;;;;;;;;;5057390;28;20463;-64
2021/06/15 08:02:28;;;;;;;9.13;8.10;;;;;;;;;;5070190;28;20651;-63
2021/06/15 08:04:54;;;;;;;7.17;6.33;;;;;;;;;;5059679;28;20456;-63
2021/06/15 08:07:20;;;;;;;10.10;7.70;;;;;;;;;;5058831;28;20295;-63
2021/06/15 08:09:48;;;;;;;7.77;7.03;;;;;;;;;;5065154;28;20231;-63
2021/06/15 08:12:16;;;;;;;8.23;7.47;;;;;;;;;;5061255;28;20213;-63
2021/06/15 08:14:41;;;;;;;8.07;7.13;;;;;;;;;;5060349;28;20455;-63
2021/06/15 08:17:07;;;;;;;9.50;8.03;;;;;;;;;;5063900;28;20463;-63
2021/06/15 08:19:32;;;;;;;7.37;6.40;;;;;;;;;;5061494;28;20304;-63
2021/06/15 08:21:57;;;;;;;7.50;6.60;;;;;;;;;;5062669;28;20240;-64
2021/06/15 08:24:23;;;;;;;9.73;7.70;;;;;;;;;;5069065;28;20219;-64
2021/06/15 08:26:48;;;;;;;11.33;9.07;;;;;;;;;;5061498;28;20212;-63
2021/06/15 08:29:14;;;;;;;8.93;7.77;;;;;;;;;;5061787;28;20316;-63
2021/06/15 08:31:40;;;;;;;9.37;8.43;;;;;;;;;;5068010;28;20255;-65
2021/06/15 08:34:06;;;;;;;11.47;7.00;;;;;;;;;;5059379;28;20221;-63
2021/06/15 08:36:38;;;;;;;6.60;5.87;;;;;;;;;;5042902;28;20463;-64
2021/06/15 08:39:06;;;;;;;8.90;8.00;;;;;;;;;;5052956;28;20574;-63
2021/06/15 08:41:34;;;;;;;11.63;7.97;;;;;;;;;;5059166;28;20497;-65
2021/06/15 08:43:59;;;;;;;8.27;7.47;;;;;;;;;;5070728;28;21003;-64
2021/06/15 08:46:25;;;;;;;8.17;7.30;;;;;;;;;;5055227;28;20451;-63
2021/06/15 08:48:50;;;;;;;7.43;6.73;;;;;;;;;;5068396;28;20245;-64
2021/06/15 08:51:16;;;;;;;7.83;7.10;;;;;;;;;;5063715;28;20255;-65
2021/06/15 08:53:42;;;;;;;9.17;8.27;;;;;;;;;;5061438;28;20224;-66
2021/06/15 08:56:21;;;;;;;8.40;6.70;;;;;;;;;;5066723;28;20657;-64
2021/06/15 08:59:00;;;;;;;6.97;6.03;;;;;;;;;;5068716;28;20458;-63
2021/06/15 09:01:26;;;;;;;7.13;6.43;;;;;;;;;;5063088;28;20467;-65
2021/06/15 09:03:52;;;;;;;8.03;5.33;;;;;;;;;;5064313;28;20449;-65
2021/06/15 09:06:18;;;;;;;7.40;6.70;;;;;;;;;;5056615;28;20216;-65
2021/06/15 09:08:57;;;;;;;7.57;6.07;;;;;;;;;;5064018;28;20998;-63
2021/06/15 09:11:24;;;;;;;9.80;8.10;;;;;;;;;;5061144;28;20213;-64
2021/06/15 09:13:50;;;;;;;7.50;6.90;;;;;;;;;;5063354;28;20451;-65
2021/06/15 09:16:36;;;;;;;6.00;5.47;;;;;;;;;;5060952;28;20467;-64
2021/06/15 09:19:13;;;;;;;8.20;6.40;;;;;;;;;;5064437;28;20451;-64
2021/06/15 09:21:40;;;;;;;5.90;5.30;;;;;;;;;;5064059;28;20474;-65
2021/06/15 09:24:23;;;;;;;5.17;4.77;;;;;;;;;;5063281;28;20928;-63
2021/06/15 09:26:52;;;;;;;12.97;11.77;;;;;;;;;;5047518;28;20538;-66
2021/06/15 09:29:19;;;;;;;7.37;6.77;;;;;;;;;;5060713;28;20459;-64
2021/06/15 09:31:53;;;;;;;27.53;24.63;;;;;;;;;;5066940;28;20954;-63
2021/06/15 09:34:19;;;;;;;14.53;13.10;;;;;;;;;;5067543;28;20463;-63
2021/06/15 09:36:44;;;;;;;16.27;14.80;;;;;;;;;;5044764;28;20465;-64
2021/06/15 09:39:10;;;;;;;9.93;9.10;;;;;;;;;;5039765;28;20238;-63
2021/06/15 09:41:44;;;;;;;12.37;10.37;;;;;;;;;;5063196;28;20358;-64
2021/06/15 09:44:20;;;;;;;12.70;11.40;;;;;;;;;;5068048;28;20224;-63
2021/06/15 09:46:48;;;;;;;5.90;5.40;;;;;;;;;;5065414;28;20477;-63
2021/06/15 09:49:30;;;;;;;8.60;7.60;;;;;;;;;;5060697;28;20465;-64
2021/06/15 09:52:15;;;;;;;7.40;6.80;;;;;;;;;;5060223;28;20452;-64
2021/06/15 09:54:47;;;;;;;8.70;8.00;;;;;;;;;;5063996;28;20452;-64
2021/06/15 09:57:27;;;;;;;12.37;11.13;;;;;;;;;;5066883;28;20452;-64
2021/06/15 10:00:21;;;;;;;22.87;20.70;;;;;;;;;;5048696;28;20522;-63
2021/06/15 10:03:00;;;;;;;11.07;9.97;;;;;;;;;;5054139;28;20793;-64
2021/06/15 10:05:31;;;;;;;9.70;8.73;;;;;;;;;;5060212;28;20489;-64
2021/06/15 10:07:59;;;;;;;26.40;23.87;;;;;;;;;;5053386;28;20472;-64
2021/06/15 10:10:28;;;;;;;16.83;8.60;;;;;;;;;;5066469;28;20479;-64
2021/06/15 10:12:53;;;;;;;9.00;7.50;;;;;;;;;;5053496;28;20556;-63
2021/06/15 10:15:20;;;;;;;12.00;9.57;;;;;;;;;;5067137;28;20857;-67
2021/06/15 10:17:46;;;;;;;8.17;7.40;;;;;;;;;;5065804;28;20240;-64
2021/06/15 10:20:18;;;;;;;8.20;6.57;;;;;;;;;;5059988;28;21004;-64
2021/06/15 10:22:44;;;;;;;11.60;10.57;;;;;;;;;;5059564;28;20506;-64
2021/06/15 10:25:10;;;;;;;8.13;7.33;;;;;;;;;;5066901;28;20555;-64
2021/06/15 10:27:35;;;;;;;15.00;13.40;;;;;;;;;;5066557;28;20964;-63
2021/06/15 10:30:01;;;;;;;8.70;7.90;;;;;;;;;;5060166;28;20561;-64
2021/06/15 10:32:28;;;;;;;10.90;9.37;;;;;;;;;;5059480;28;20636;-64
2021/06/15 10:35:02;;;;;;;6.47;5.80;;;;;;;;;;5064942;28;20918;-63
2021/06/15 10:37:37;;;;;;;6.80;5.50;;;;;;;;;;5041340;28;20552;-64
2021/06/15 10:40:11;;;;;;;9.87;6.90;;;;;;;;;;5063023;28;20456;-64
2021/06/15 10:42:37;;;;;;;7.47;6.70;;;;;;;;;;5068187;28;20462;-64
2021/06/15 10:45:11;;;;;;;12.63;11.43;;;;;;;;;;5062287;28;20474;-64
2021/06/15 10:47:37;;;;;;;12.40;11.20;;;;;;;;;;5066757;28;20269;-64
2021/06/15 10:50:03;;;;;;;11.93;9.23;;;;;;;;;;5064662;28;20829;-64
2021/06/15 10:53:04;;;;;;;12.23;11.07;;;;;;;;;;5059718;28;20549;-64
2021/06/15 10:55:57;;;;;;;11.23;9.27;;;;;;;;;;5059257;28;20244;-63
2021/06/15 10:58:44;;;;;;;8.53;7.60;;;;;;;;;;5059245;28;20467;-63
2021/06/15 11:01:23;;;;;;;13.27;11.87;;;;;;;;;;5051321;28;20948;-63
2021/06/15 11:04:03;;;;;;;7.70;7.10;;;;;;;;;;5055823;28;20539;-64
2021/06/15 11:06:29;;;;;;;10.30;8.50;;;;;;;;;;5064875;28;20846;-63
2021/06/15 11:09:03;;;;;;;7.97;7.17;;;;;;;;;;5069761;28;20537;-64
2021/06/15 11:11:30;;;;;;;9.60;8.70;;;;;;;;;;5058557;28;20220;-64
2021/06/15 11:14:04;;;;;;;7.87;7.17;;;;;;;;;;5066591;28;20476;-64
2021/06/15 11:16:39;;;;;;;9.87;7.40;;;;;;;;;;5065081;28;20554;-64
2021/06/15 11:19:08;;;;;;;12.70;9.40;;;;;;;;;;5061860;28;20534;-65
2021/06/15 11:21:35;;;;;;;9.87;9.07;;;;;;;;;;5059007;28;21010;-64
2021/06/15 11:24:20;;;;;;;8.50;7.60;;;;;;;;;;5062943;28;20458;-64
2021/06/15 11:26:47;;;;;;;8.47;7.60;;;;;;;;;;5066074;28;20459;-64
2021/06/15 11:29:36;;;;;;;10.13;9.13;;;;;;;;;;5063486;28;20477;-64
2021/06/15 11:32:18;;;;;;;9.00;7.77;;;;;;;;;;5048609;28;20874;-65
2021/06/15 11:34:53;;;;;;;16.53;15.13;;;;;;;;;;5059019;28;20459;-64
2021/06/15 11:37:20;;;;;;;8.87;7.97;;;;;;;;;;5058184;28;20444;-63
2021/06/15 11:39:45;;;;;;;9.47;8.40;;;;;;;;;;5052912;28;21017;-64
2021/06/15 11:42:21;;;;;;;11.50;10.40;;;;;;;;;;5054788;28;20551;-64
2021/06/15 11:44:52;;;;;;;7.93;7.23;;;;;;;;;;5064288;28;20656;-64
2021/06/15 11:47:32;;;;;;;11.30;8.23;;;;;;;;;;5069397;28;20845;-63
2021/06/15 11:50:22;;;;;;;12.37;8.97;;;;;;;;;;5069147;28;20462;-63
2021/06/15 11:53:04;;;;;;;7.70;7.10;;;;;;;;;;5067108;28;20459;-65
2021/06/15 11:55:37;;;;;;;9.17;6.80;;;;;;;;;;5062614;28;20458;-64
2021/06/15 11:58:17;;;;;;;11.07;10.07;;;;;;;;;;5062396;28;20464;-64
2021/06/15 12:00:46;;;;;;;14.20;12.87;;;;;;;;;;5066503;28;20479;-63
2021/06/15 12:03:17;;;;;;;9.23;8.33;;;;;;;;;;5069474;28;20455;-64
2021/06/15 12:05:45;;;;;;;12.57;11.37;;;;;;;;;;5065836;28;20458;-64
2021/06/15 12:08:11;;;;;;;9.67;8.77;;;;;;;;;;5068844;28;20451;-65
2021/06/15 12:10:38;;;;;;;13.63;12.23;;;;;;;;;;5065597;28;20467;-65
2021/06/15 12:13:05;;;;;;;12.03;10.97;;;;;;;;;;5061922;28;20539;-65
2021/06/15 12:15:41;;;;;;;8.77;7.90;;;;;;;;;;5065615;28;20847;-64
2021/06/15 12:18:20;;;;;;;8.20;7.43;;;;;;;;;;5069191;28;20483;-64
2021/06/15 12:20:46;;;;;;;8.90;8.00;;;;;;;;;;5068535;28;21029;-63
2021/06/15 12:23:31;;;;;;;9.33;8.40;;;;;;;;;;5064486;28;20463;-64
2021/06/15 12:26:30;;;;;;;8.47;7.20;;;;;;;;;;5061855;28;20300;-64
2021/06/15 12:28:57;;;;;;;11.23;10.33;;;;;;;;;;5061533;28;20468;-65
2021/06/15 12:31:24;;;;;;;15.70;14.37;;;;;;;;;;5068334;28;20541;-65
2021/06/15 12:33:53;;;;;;;7.87;7.07;;;;;;;;;;5068557;28;20462;-63
2021/06/15 12:36:21;;;;;;;11.30;10.30;;;;;;;;;;5062683;28;20454;-64
2021/06/15 12:38:47;;;;;;;9.53;8.47;;;;;;;;;;5061721;28;20470;-64
2021/06/15 12:41:24;;;;;;;7.77;6.90;;;;;;;;;;5066537;28;20473;-64
2021/06/15 12:43:51;;;;;;;11.63;10.57;;;;;;;;;;5068788;28;20541;-64
2021/06/15 12:46:20;;;;;;;13.93;7.23;;;;;;;;;;5064534;28;20474;-64
2021/06/15 12:48:47;;;;;;;7.80;7.00;;;;;;;;;;5061390;28;20856;-64
2021/06/15 12:51:14;;;;;;;13.10;11.80;;;;;;;;;;5065131;28;20589;-65
2021/06/15 12:53:42;;;;;;;12.67;11.47;;;;;;;;;;5068664;28;20844;-64
2021/06/15 12:56:18;;;;;;;9.27;8.40;;;;;;;;;;5064533;28;20466;-64
2021/06/15 12:58:45;;;;;;;8.20;7.50;;;;;;;;;;5061633;28;20546;-65
2021/06/15 13:01:12;;;;;;;11.97;10.97;;;;;;;;;;5063163;28;20509;-64
2021/06/15 13:03:37;;;;;;;7.63;6.87;;;;;;;;;;5068462;28;20521;-64
2021/06/15 13:06:11;;;;;;;12.83;11.70;;;;;;;;;;5066002;28;20466;-64
2021/06/15 13:08:37;;;;;;;11.43;10.23;;;;;;;;;;5068971;28;20239;-65
2021/06/15 13:11:13;;;;;;;14.33;12.40;;;;;;;;;;5062017;28;20486;-64
2021/06/15 13:13:58;;;;;;;16.23;14.93;;;;;;;;;;5060882;28;20462;-64
2021/06/15 13:16:38;;;;;;;10.83;9.83;;;;;;;;;;5061486;28;20463;-64
2021/06/15 13:19:09;;;;;;;7.47;6.47;;;;;;;;;;5063217;28;20459;-63
2021/06/15 13:21:53;;;;;;;16.60;14.80;;;;;;;;;;5064410;28;20460;-64
2021/06/15 13:24:19;;;;;;;6.53;5.80;;;;;;;;;;5062464;28;20467;-64
2021/06/15 13:26:46;;;;;;;9.17;8.47;;;;;;;;;;5062711;28;20520;-64
2021/06/15 13:29:12;;;;;;;10.50;9.60;;;;;;;;;;5059707;28;20471;-64
2021/06/15 13:31:37;;;;;;;9.27;7.00;;;;;;;;;;5066405;28;20467;-65
2021/06/15 13:34:04;;;;;;;8.33;7.53;;;;;;;;;;5068178;28;20551;-64
2021/06/15 13:36:30;;;;;;;9.50;8.60;;;;;;;;;;5062478;28;20225;-64
2021/06/15 13:39:08;;;;;;;11.80;10.70;;;;;;;;;;5060845;28;20922;-65
2021/06/15 13:41:33;;;;;;;6.47;5.07;;;;;;;;;;5062457;28;20225;-64
2021/06/15 13:43:59;;;;;;;11.67;10.67;;;;;;;;;;5059192;28;20474;-63
2021/06/15 13:46:26;;;;;;;13.40;12.20;;;;;;;;;;5062699;28;20707;-64
2021/06/15 13:48:53;;;;;;;6.20;5.60;;;;;;;;;;5067719;28;20227;-65
2021/06/15 13:51:18;;;;;;;8.80;6.63;;;;;;;;;;5065982;28;20934;-64
2021/06/15 13:53:44;;;;;;;10.40;8.80;;;;;;;;;;5061116;28;20550;-64
2021/06/15 13:56:09;;;;;;;6.30;5.80;;;;;;;;;;5063118;28;20237;-64
2021/06/15 13:58:35;;;;;;;12.47;11.30;;;;;;;;;;5066547;28;20236;-65
2021/06/15 14:01:00;;;;;;;8.00;7.17;;;;;;;;;;5065170;28;20229;-64
2021/06/15 14:03:26;;;;;;;9.63;8.83;;;;;;;;;;5067172;28;20291;-63
2021/06/15 14:05:51;;;;;;;7.50;5.63;;;;;;;;;;5063956;28;20240;-64
2021/06/15 14:08:20;;;;;;;7.77;7.13;;;;;;;;;;5065520;28;20269;-64
2021/06/15 14:10:46;;;;;;;8.40;7.53;;;;;;;;;;5063160;28;20300;-63
2021/06/15 14:13:14;;;;;;;9.40;8.40;;;;;;;;;;5060702;28;20451;-64
2021/06/15 14:15:39;;;;;;;9.40;7.97;;;;;;;;;;5062355;28;20448;-64
2021/06/15 14:18:05;;;;;;;7.30;6.70;;;;;;;;;;5066977;28;20803;-64
2021/06/15 14:20:31;;;;;;;7.30;6.63;;;;;;;;;;5064185;28;20281;-65
2021/06/15 14:22:58;;;;;;;6.43;5.83;;;;;;;;;;5060185;28;20257;-64
2021/06/15 14:25:26;;;;;;;6.97;6.47;;;;;;;;;;5062065;28;20502;-64
2021/06/15 14:27:52;;;;;;;6.63;6.07;;;;;;;;;;5066820;28;20520;-64
2021/06/15 14:30:20;;;;;;;6.20;5.60;;;;;;;;;;5064828;28;20467;-64
2021/06/15 14:32:45;;;;;;;5.60;5.10;;;;;;;;;;5058911;28;20706;-64
2021/06/15 14:35:11;;;;;;;9.30;8.50;;;;;;;;;;5061427;28;20475;-64
2021/06/15 14:37:37;;;;;;;8.73;7.93;;;;;;;;;;5048221;28;20660;-63
2021/06/15 14:40:04;;;;;;;6.10;5.33;;;;;;;;;;5045746;28;20482;-64
2021/06/15 14:42:30;;;;;;;5.90;5.33;;;;;;;;;;5060815;28;20230;-65
2021/06/15 14:44:55;;;;;;;7.90;7.20;;;;;;;;;;5046236;28;20473;-64
2021/06/15 14:47:21;;;;;;;6.97;6.37;;;;;;;;;;5066362;28;20235;-64
2021/06/15 14:49:46;;;;;;;6.93;6.17;;;;;;;;;;5054247;28;20224;-63